Time;durP1;ratioP1;P1;durP2;ratioP2;P2;SDS_P1;SDS_P2;PMS_P1;PMS_P2;Temp;Humidity;BMP_temperature;BMP_pressure;BME280_temperature;BME280_humidity;BME280_pressure;Samples;Min_cycle;Max_cycle;Signal;HPM_P1;HPM_P2
2021/05/28 00:00:18;;;;;;;5.22;4.78;;;;;;;13.58;38.49;101410.28;4908791;28;97615;-72
2021/05/28 00:02:46;;;;;;;5.45;4.97;;;;;;;13.59;38.36;101412.06;4904188;28;97881;-72
2021/05/28 00:05:14;;;;;;;7.40;5.38;;;;;;;13.59;38.50;101405.81;4912552;28;98758;-72
2021/05/28 00:07:42;;;;;;;5.45;4.95;;;;;;;13.56;38.46;101414.69;4917464;28;97696;-72
2021/05/28 00:10:11;;;;;;;5.75;4.95;;;;;;;13.58;38.54;101409.38;4899185;28;97089;-71
2021/05/28 00:12:39;;;;;;;5.32;4.82;;;;;;;13.57;38.56;101416.47;4911577;28;96901;-72
2021/05/28 00:15:09;;;;;;;6.00;4.95;;;;;;;13.58;38.46;101418.28;4906961;28;98126;-72
2021/05/28 00:17:37;;;;;;;5.30;4.80;;;;;;;13.60;38.50;101412.97;4900163;28;103708;-71
2021/05/28 00:20:06;;;;;;;5.10;4.70;;;;;;;13.58;38.45;101417.38;4909416;28;99169;-73
2021/05/28 00:22:34;;;;;;;5.30;4.93;;;;;;;13.61;38.76;101431.72;4912271;28;97154;-72
2021/05/28 00:25:01;;;;;;;6.15;4.75;;;;;;;13.53;38.72;101427.97;4905333;28;98803;-71
2021/05/28 00:27:30;;;;;;;4.68;4.38;;;;;;;13.56;38.47;101421.81;4907376;28;97889;-72
2021/05/28 00:29:59;;;;;;;5.03;4.63;;;;;;;13.55;38.46;101441.41;4917214;28;96710;-71
2021/05/28 00:32:27;;;;;;;5.10;4.55;;;;;;;13.54;38.56;101437.81;4911174;28;97766;-71
2021/05/28 00:34:54;;;;;;;5.03;4.63;;;;;;;13.53;38.63;101435.13;4907657;28;101749;-72
2021/05/28 00:37:22;;;;;;;4.82;4.43;;;;;;;13.53;38.51;101441.34;4912603;28;97786;-71
2021/05/28 00:39:49;;;;;;;6.85;5.05;;;;;;;13.51;38.78;101445.78;4902179;28;97261;-72
2021/05/28 00:42:17;;;;;;;5.00;4.53;;;;;;;13.47;38.61;101441.25;4882322;28;97469;-72
2021/05/28 00:44:45;;;;;;;5.28;4.78;;;;;;;13.47;38.73;101443.00;4906170;28;98588;-72
2021/05/28 00:47:12;;;;;;;5.70;5.30;;;;;;;13.43;38.74;101446.50;4908040;28;99487;-71
2021/05/28 00:49:40;;;;;;;5.57;5.07;;;;;;;13.44;38.82;101451.00;4908963;28;97132;-72
2021/05/28 00:52:07;;;;;;;6.07;5.40;;;;;;;13.42;38.83;101444.69;4911065;28;97106;-72
2021/05/28 00:54:34;;;;;;;5.30;4.75;;;;;;;13.45;38.73;101451.00;4921615;28;97548;-72
2021/05/28 00:57:02;;;;;;;5.40;5.00;;;;;;;13.48;38.34;101450.16;4923039;28;96847;-71
2021/05/28 00:59:29;;;;;;;5.53;5.13;;;;;;;13.48;38.79;101448.38;4902067;28;97341;-73
2021/05/28 01:01:58;;;;;;;5.20;4.78;;;;;;;13.53;38.62;101454.72;4911281;28;98102;-73
2021/05/28 01:04:25;;;;;;;8.48;5.97;;;;;;;13.54;38.51;101459.22;4907744;28;97785;-72
2021/05/28 01:06:52;;;;;;;5.82;5.35;;;;;;;13.54;38.65;101469.00;4908874;28;100948;-72
2021/05/28 01:09:20;;;;;;;7.75;5.95;;;;;;;13.56;38.39;101464.59;4909023;28;97258;-72
2021/05/28 01:11:47;;;;;;;6.47;5.97;;;;;;;13.61;38.61;101463.81;4905405;28;97238;-72
2021/05/28 01:14:14;;;;;;;7.00;5.85;;;;;;;13.60;38.60;101477.16;4887274;28;98967;-73
2021/05/28 01:16:42;;;;;;;6.88;5.53;;;;;;;13.56;38.55;101470.84;4900672;28;100348;-72
2021/05/28 01:19:10;;;;;;;6.47;5.90;;;;;;;13.53;38.71;101464.53;4906489;28;97834;-73
2021/05/28 01:21:37;;;;;;;6.65;5.43;;;;;;;13.51;38.43;101467.19;4904562;28;97360;-73
2021/05/28 01:24:07;;;;;;;6.72;6.18;;;;;;;13.42;38.91;101482.13;4902257;28;99402;-73
2021/05/28 01:26:34;;;;;;;6.25;5.70;;;;;;;13.42;39.03;101483.03;4901328;28;100806;-73
2021/05/28 01:29:02;;;;;;;7.88;5.90;;;;;;;13.41;39.06;101488.34;4893192;28;97555;-73
2021/05/28 01:31:30;;;;;;;6.90;6.10;;;;;;;13.40;39.00;101490.13;4907013;28;97877;-73
2021/05/28 01:33:57;;;;;;;5.72;5.15;;;;;;;13.41;38.96;101493.69;4903487;28;97643;-73
2021/05/28 01:36:24;;;;;;;5.70;5.30;;;;;;;13.41;38.94;101493.69;4906810;28;99556;-72
2021/05/28 01:38:52;;;;;;;5.80;5.32;;;;;;;13.38;38.96;101491.88;4904906;28;97847;-72
2021/05/28 01:41:20;;;;;;;5.40;5.00;;;;;;;13.34;39.09;101499.78;4915029;28;97745;-73
2021/05/28 01:43:47;;;;;;;5.95;5.38;;;;;;;13.33;39.11;101504.22;4906653;28;101724;-72
2021/05/28 01:46:15;;;;;;;5.57;5.18;;;;;;;13.34;39.00;101503.34;4895533;28;98852;-73
2021/05/28 01:48:42;;;;;;;6.18;5.68;;;;;;;13.33;39.13;101504.22;4893078;28;97299;-72
2021/05/28 01:51:10;;;;;;;6.82;5.97;;;;;;;13.29;39.18;101502.38;4903417;28;97344;-73
2021/05/28 01:53:37;;;;;;;6.47;5.88;;;;;;;13.29;39.12;101502.38;4904230;28;99025;-72
2021/05/28 01:56:05;;;;;;;6.43;5.85;;;;;;;13.27;39.22;101513.88;4901993;28;99243;-72
2021/05/28 01:58:33;;;;;;;5.50;5.10;;;;;;;13.20;39.24;101512.84;4908027;28;98222;-73
2021/05/28 02:01:00;;;;;;;5.47;5.10;;;;;;;13.15;39.36;101514.50;4901502;28;97351;-72
2021/05/28 02:03:27;;;;;;;6.63;6.03;;;;;;;13.11;39.41;101520.69;4901615;28;98673;-72
2021/05/28 02:05:55;;;;;;;5.25;4.75;;;;;;;13.07;39.47;101518.78;4903326;28;98792;-72
2021/05/28 02:08:23;;;;;;;5.15;4.75;;;;;;;13.06;39.48;101525.00;4901725;28;97349;-72
2021/05/28 02:10:52;;;;;;;6.43;5.50;;;;;;;13.07;39.52;101524.13;4900017;28;98762;-72
2021/05/28 02:13:19;;;;;;;5.65;5.15;;;;;;;13.08;39.41;101521.50;4902363;28;98525;-72
2021/05/28 02:15:47;;;;;;;5.60;5.00;;;;;;;13.11;39.39;101526.03;4911972;28;97550;-72
2021/05/28 02:18:15;;;;;;;5.38;4.97;;;;;;;13.07;39.50;101522.38;4905716;28;97147;-71
2021/05/28 02:20:42;;;;;;;4.90;4.53;;;;;;;13.07;39.58;101524.13;4903443;28;96807;-71
2021/05/28 02:23:09;;;;;;;5.07;4.57;;;;;;;13.09;39.34;101527.75;4910395;28;100187;-72
2021/05/28 02:25:37;;;;;;;5.10;4.75;;;;;;;13.09;39.40;101525.97;4899900;28;97635;-72
2021/05/28 02:28:04;;;;;;;4.57;4.18;;;;;;;13.09;39.38;101525.97;4903471;28;97436;-72
2021/05/28 02:30:32;;;;;;;5.45;5.05;;;;;;;13.12;39.35;101528.72;4909222;28;96949;-73
2021/05/28 02:33:00;;;;;;;4.95;4.60;;;;;;;13.13;39.18;101529.59;4906607;28;100789;-73
2021/05/28 02:35:28;;;;;;;5.28;4.90;;;;;;;13.10;39.38;101538.47;4897866;28;99752;-72
2021/05/28 02:37:55;;;;;;;4.72;4.38;;;;;;;13.05;39.33;101531.22;4903649;28;97825;-73
2021/05/28 02:40:22;;;;;;;5.10;4.65;;;;;;;13.07;39.24;101540.16;4905695;28;97434;-73
2021/05/28 02:42:50;;;;;;;4.32;4.10;;;;;;;13.01;39.35;101542.69;4902707;28;97644;-73
2021/05/28 02:45:18;;;;;;;4.80;4.55;;;;;;;12.97;39.42;101541.69;4908229;28;99629;-72
2021/05/28 02:47:46;;;;;;;5.43;5.03;;;;;;;12.98;39.53;101538.13;4903798;28;97863;-72
2021/05/28 02:50:14;;;;;;;6.00;5.20;;;;;;;12.99;39.39;101544.38;4899222;28;99105;-72
2021/05/28 02:52:41;;;;;;;4.93;4.63;;;;;;;12.98;39.47;101539.94;4910170;28;99315;-72
2021/05/28 02:55:10;;;;;;;7.10;6.10;;;;;;;12.96;39.47;101541.66;4901433;28;99471;-72
2021/05/28 02:57:37;;;;;;;5.15;4.75;;;;;;;12.91;39.40;101541.53;4905100;28;97312;-72
2021/05/28 03:00:05;;;;;;;5.82;5.30;;;;;;;;;;4907070;28;97251;-72
2021/05/28 03:02:33;;;;;;;5.85;5.45;;;;;;;12.95;39.42;101548.75;4906997;28;97917;-72
2021/05/28 03:05:00;;;;;;;5.30;4.93;;;;;;;12.94;39.36;101541.63;4899736;28;98375;-73
2021/05/28 03:07:29;;;;;;;6.07;5.50;;;;;;;12.91;39.45;101546.00;4904817;28;97521;-73
2021/05/28 03:09:57;;;;;;;6.40;5.90;;;;;;;12.92;39.21;101550.47;4909913;28;97174;-72
2021/05/28 03:12:24;;;;;;;6.40;5.90;;;;;;;12.95;39.22;101550.53;4904445;28;98969;-72
2021/05/28 03:14:52;;;;;;;5.93;5.55;;;;;;;12.97;39.07;101554.13;4907508;28;100431;-72
2021/05/28 03:17:19;;;;;;;6.35;5.82;;;;;;;12.98;39.21;101555.97;4909505;28;97538;-73
2021/05/28 03:19:48;;;;;;;6.68;6.13;;;;;;;12.95;39.20;101559.44;4898004;28;97223;-72
2021/05/28 03:22:32;;;;;;;7.13;6.60;;;;;;;12.95;39.01;101556.78;4905318;28;97735;-72
2021/05/28 03:25:01;;;;;;;6.43;5.97;;;;;;;12.89;39.15;101561.09;4901268;28;99356;-72
2021/05/28 03:27:28;;;;;;;7.72;7.13;;;;;;;12.88;39.20;101559.25;4905427;28;97634;-72
2021/05/28 03:29:55;;;;;;;7.93;6.03;;;;;;;12.87;39.26;101562.81;4902831;28;97204;-72
2021/05/28 03:32:24;;;;;;;6.78;6.28;;;;;;;12.84;39.24;101558.28;4903088;28;99508;-72
2021/05/28 03:34:52;;;;;;;6.85;6.03;;;;;;;12.82;39.33;101568.03;4922292;28;97934;-72
2021/05/28 03:37:20;;;;;;;6.97;6.40;;;;;;;12.83;39.34;101568.94;4898740;28;96981;-72
2021/05/28 03:39:48;;;;;;;7.10;6.40;;;;;;;12.80;39.22;101568.88;4907751;28;98331;-73
2021/05/28 03:42:17;;;;;;;6.95;6.13;;;;;;;12.80;39.36;101574.22;4908311;28;97460;-72
2021/05/28 03:44:45;;;;;;;6.00;5.47;;;;;;;12.82;39.31;101575.16;4906767;28;99214;-72
2021/05/28 03:47:13;;;;;;;6.38;5.88;;;;;;;12.82;39.16;101576.03;4908059;28;97447;-73
2021/05/28 03:49:41;;;;;;;5.63;5.13;;;;;;;12.79;39.35;101575.97;4924842;28;97231;-73
2021/05/28 03:52:09;;;;;;;6.05;5.47;;;;;;;12.86;39.05;101574.34;4909964;28;99706;-72
2021/05/28 03:54:36;;;;;;;8.30;6.60;;;;;;;12.92;38.97;101579.84;4900041;28;97783;-72
2021/05/28 03:57:04;;;;;;;36.97;22.00;;;;;;;12.95;39.05;101574.56;4917697;28;97948;-72
2021/05/28 03:59:33;;;;;;;13.00;7.53;;;;;;;12.94;39.10;101583.47;4905743;28;97637;-72
2021/05/28 04:02:01;;;;;;;6.50;5.88;;;;;;;12.87;39.03;101576.16;4896241;28;99217;-73
2021/05/28 04:04:28;;;;;;;6.28;5.78;;;;;;;12.79;39.33;101583.06;4930879;28;99246;-72
2021/05/28 04:06:56;;;;;;;6.07;5.47;;;;;;;12.79;39.30;101588.41;4912355;28;97333;-71
2021/05/28 04:09:24;;;;;;;9.02;8.15;;;;;;;12.77;39.23;101584.81;4906534;28;97225;-72
2021/05/28 04:11:52;;;;;;;7.63;6.70;;;;;;;12.80;39.26;101587.56;4909345;28;98545;-73
2021/05/28 04:14:20;;;;;;;5.60;5.18;;;;;;;12.80;39.13;101598.25;4903824;28;99211;-72
2021/05/28 04:16:48;;;;;;;6.25;5.85;;;;;;;12.78;39.24;101594.63;4900630;28;98599;-72
2021/05/28 04:19:15;;;;;;;5.93;5.45;;;;;;;12.73;39.44;101598.97;4909948;28;97417;-72
2021/05/28 04:21:43;;;;;;;5.47;5.10;;;;;;;12.70;39.34;101599.78;4907809;28;98993;-72
2021/05/28 04:24:10;;;;;;;27.52;15.80;;;;;;;12.68;39.25;101596.16;4901866;28;97869;-73
2021/05/28 04:26:37;;;;;;;19.13;13.32;;;;;;;12.70;39.16;101598.88;4905088;28;97392;-73
2021/05/28 04:29:05;;;;;;;6.97;5.13;;;;;;;12.69;39.22;101602.41;4904050;28;97897;-72
2021/05/28 04:31:32;;;;;;;5.45;5.03;;;;;;;12.67;39.38;101604.16;4905034;28;98794;-73
2021/05/28 04:34:00;;;;;;;5.85;5.15;;;;;;;12.64;39.31;101604.97;4905161;28;100703;-72
2021/05/28 04:36:27;;;;;;;8.40;6.43;;;;;;;12.66;39.31;101600.56;4907227;28;97319;-73
2021/05/28 04:39:09;;;;;;;6.75;5.35;;;;;;;12.63;39.37;101607.59;4899970;28;98963;-72
2021/05/28 04:41:40;;;;;;;4.90;4.50;;;;;;;12.62;39.18;101601.34;4901867;28;98812;-71
2021/05/28 04:44:08;;;;;;;5.43;5.03;;;;;;;12.65;39.19;101601.44;4896672;28;97826;-73
2021/05/28 04:46:35;;;;;;;5.22;4.82;;;;;;;12.60;39.11;101604.84;4903824;28;96815;-72
2021/05/28 04:49:04;;;;;;;4.82;4.43;;;;;;;12.60;39.36;101602.19;4900801;28;97273;-71
2021/05/28 04:51:31;;;;;;;4.70;4.30;;;;;;;12.62;39.20;101606.69;4903065;28;97974;-71
2021/05/28 04:53:58;;;;;;;4.47;4.13;;;;;;;12.68;39.14;101614.84;4907329;28;99191;-72
2021/05/28 04:56:25;;;;;;;12.45;8.40;;;;;;;12.67;39.03;101610.41;4906524;28;96890;-71
2021/05/28 04:58:53;;;;;;;14.02;9.38;;;;;;;12.69;39.22;101607.75;4909061;28;97193;-72
2021/05/28 05:01:20;;;;;;;4.00;3.80;;;;;;;12.72;39.17;101613.16;4912732;28;97892;-72
2021/05/28 05:03:48;;;;;;;4.65;4.25;;;;;;;12.73;39.20;101613.19;4908595;28;100072;-73
2021/05/28 05:06:16;;;;;;;5.70;4.25;;;;;;;12.74;39.14;101619.47;4893513;28;99346;-73
2021/05/28 05:08:44;;;;;;;4.90;4.13;;;;;;;12.75;39.17;101614.16;4904030;28;97957;-72
2021/05/28 05:11:12;;;;;;;3.92;3.63;;;;;;;12.74;38.96;101627.47;4902854;28;97694;-72
2021/05/28 05:13:39;;;;;;;5.45;4.20;;;;;;;12.69;39.05;101629.13;4905829;28;99174;-72
2021/05/28 05:16:06;;;;;;;4.70;3.95;;;;;;;12.72;39.11;101632.78;4905946;28;97486;-73
2021/05/28 05:18:34;;;;;;;4.28;3.97;;;;;;;12.75;38.97;101624.84;4907919;28;98063;-73
2021/05/28 05:21:01;;;;;;;5.20;3.88;;;;;;;12.75;38.99;101626.59;4905972;28;100712;-73
2021/05/28 05:23:30;;;;;;;4.13;3.83;;;;;;;12.78;38.93;101624.91;4905081;28;97798;-73
2021/05/28 05:25:57;;;;;;;4.57;4.20;;;;;;;12.76;38.96;101633.75;4905669;28;98369;-72
2021/05/28 05:28:24;;;;;;;4.20;3.67;;;;;;;12.73;38.92;101641.72;4904668;28;97461;-73
2021/05/28 05:30:52;;;;;;;4.10;3.83;;;;;;;12.77;38.83;101643.56;4905533;28;98855;-73
2021/05/28 05:33:19;;;;;;;16.60;9.05;;;;;;;12.81;38.80;101648.13;4903907;28;97798;-73
2021/05/28 05:35:47;;;;;;;12.43;6.63;;;;;;;12.82;38.85;101644.63;4895541;28;97938;-72
2021/05/28 05:38:18;;;;;;;7.22;6.03;;;;;;;12.89;38.81;101651.91;4912324;28;97530;-73
2021/05/28 05:40:47;;;;;;;4.88;4.32;;;;;;;12.86;38.88;101646.47;4911159;28;97618;-73
2021/05/28 05:43:14;;;;;;;8.25;5.00;;;;;;;12.86;38.77;101641.13;4906703;28;99199;-74
2021/05/28 05:45:42;;;;;;;5.70;5.20;;;;;;;12.81;38.85;101661.47;4900770;28;97985;-77
2021/05/28 05:48:10;;;;;;;5.63;5.20;;;;;;;12.78;38.78;101654.28;4915837;28;97452;-74
2021/05/28 05:50:37;;;;;;;6.10;5.35;;;;;;;12.79;38.74;101665.88;4906702;28;98333;-74
2021/05/28 05:53:06;;;;;;;9.23;7.18;;;;;;;12.80;38.68;101665.91;4900252;28;99398;-74
2021/05/28 05:55:33;;;;;;;6.95;6.28;;;;;;;12.81;38.69;101665.06;4906440;28;98305;-74
2021/05/28 05:58:02;;;;;;;6.32;5.78;;;;;;;12.77;38.67;101671.19;4898752;28;97350;-71
2021/05/28 06:00:29;;;;;;;7.90;6.20;;;;;;;12.74;38.65;101671.13;4901530;28;97715;-71
2021/05/28 06:02:56;;;;;;;26.80;14.85;;;;;;;12.77;38.58;101672.94;4899529;28;99587;-73
2021/05/28 06:05:24;;;;;;;10.32;7.45;;;;;;;12.80;38.63;101675.72;4894075;28;98000;-73
2021/05/28 06:07:51;;;;;;;7.05;6.43;;;;;;;12.88;38.37;101668.78;4895573;28;97972;-73
2021/05/28 06:10:18;;;;;;;7.47;6.78;;;;;;;12.93;38.45;101677.81;4893651;28;99393;-74
2021/05/28 06:12:46;;;;;;;6.47;5.90;;;;;;;12.96;38.19;101676.16;4884321;28;98709;-73
2021/05/28 06:18:04;;;;;;;8.90;6.75;;;;;;;13.01;38.28;101693.22;4892258;28;98446;-73
2021/05/28 06:20:33;;;;;;;7.15;6.30;;;;;;;13.02;38.19;101692.34;4893471;28;99750;-72
2021/05/28 06:23:02;;;;;;;7.80;6.18;;;;;;;13.06;38.19;101693.34;4905455;28;96829;-73
2021/05/28 06:25:30;;;;;;;6.43;5.82;;;;;;;13.07;38.06;101693.41;4897798;28;98867;-73
2021/05/28 06:27:57;;;;;;;5.85;5.40;;;;;;;13.05;38.06;101695.13;4902109;28;97916;-72
2021/05/28 06:30:25;;;;;;;16.25;10.57;;;;;;;13.09;38.10;101701.44;4902022;28;98978;-72
2021/05/28 06:32:53;;;;;;;8.15;7.28;;;;;;;13.09;38.07;101702.31;4883153;28;98745;-72
2021/05/28 06:35:20;;;;;;;6.80;5.75;;;;;;;13.07;38.14;101705.84;4897665;28;97410;-74
2021/05/28 06:37:48;;;;;;;6.10;5.55;;;;;;;13.04;38.00;101704.00;4899341;28;98122;-74
2021/05/28 06:40:15;;;;;;;7.75;6.00;;;;;;;13.05;38.01;101715.59;4898436;28;99250;-72
2021/05/28 06:42:43;;;;;;;7.10;5.82;;;;;;;13.05;38.17;101724.53;4891275;28;98018;-71
2021/05/28 06:45:11;;;;;;;6.63;5.93;;;;;;;13.08;37.99;101719.25;4895096;28;97141;-72
2021/05/28 06:47:40;;;;;;;6.65;5.53;;;;;;;13.13;37.79;101724.69;4880537;28;96914;-72
2021/05/28 06:50:08;;;;;;;8.57;5.50;;;;;;;13.15;37.84;101730.97;4894793;28;99274;-72
2021/05/28 06:52:35;;;;;;;5.40;4.90;;;;;;;13.11;37.90;101727.31;4900133;28;99293;-72
2021/05/28 06:55:03;;;;;;;5.45;4.95;;;;;;;13.20;37.83;101720.41;4903858;28;97194;-72
2021/05/28 06:57:31;;;;;;;5.43;4.93;;;;;;;13.22;37.77;101734.72;4904666;28;97825;-73
2021/05/28 06:59:59;;;;;;;5.22;4.82;;;;;;;13.18;37.73;101733.75;4910720;28;98261;-73
2021/05/28 07:02:27;;;;;;;13.23;10.13;;;;;;;13.24;37.74;101733.88;4905791;28;97191;-73
2021/05/28 07:04:55;;;;;;;9.80;7.40;;;;;;;13.31;37.57;101741.22;4913991;28;96843;-71
2021/05/28 07:07:22;;;;;;;7.90;5.30;;;;;;;13.33;37.66;101738.59;4910967;28;97163;-73
2021/05/28 07:09:50;;;;;;;4.82;4.53;;;;;;;13.32;37.58;101729.66;4904842;28;99761;-72
2021/05/28 07:12:17;;;;;;;5.28;4.85;;;;;;;13.34;37.50;101730.59;4899857;28;99044;-73
2021/05/28 07:14:44;;;;;;;5.57;4.60;;;;;;;13.34;37.63;101735.94;4902240;28;97290;-72
2021/05/28 07:17:12;;;;;;;5.45;5.05;;;;;;;13.37;37.49;101727.97;4903973;28;97179;-73
2021/05/28 07:19:39;;;;;;;5.57;4.35;;;;;;;13.39;37.50;101734.28;4896089;28;97647;-73
2021/05/28 07:22:08;;;;;;;5.25;4.68;;;;;;;13.48;37.31;101729.16;4897335;28;99383;-73
2021/05/28 07:24:35;;;;;;;46.65;22.33;;;;;;;13.54;37.18;101726.63;4899213;28;96881;-73
2021/05/28 07:27:03;;;;;;;9.65;6.47;;;;;;;13.62;37.19;101732.19;4895692;28;97449;-73
2021/05/28 07:29:30;;;;;;;5.57;4.95;;;;;;;13.62;37.14;101733.06;4902517;28;97627;-73
2021/05/28 07:31:58;;;;;;;6.10;5.38;;;;;;;13.61;37.24;101741.97;4902829;28;99703;-72
2021/05/28 07:34:26;;;;;;;7.13;5.55;;;;;;;13.65;37.24;101732.22;4904858;28;98063;-73
2021/05/28 07:36:53;;;;;;;5.82;5.15;;;;;;;13.71;37.04;101740.41;4902429;28;97632;-73
2021/05/28 07:39:22;;;;;;;5.68;5.18;;;;;;;13.71;37.16;101735.97;4882239;28;98072;-73
2021/05/28 07:41:49;;;;;;;5.78;5.20;;;;;;;13.76;36.99;101736.97;4909972;28;97988;-72
2021/05/28 07:44:17;;;;;;;30.92;16.40;;;;;;;13.85;36.79;101726.53;4904192;28;97021;-73
2021/05/28 07:46:44;;;;;;;15.10;10.98;;;;;;;13.88;37.01;101736.38;4902715;28;98125;-72
2021/05/28 07:49:12;;;;;;;6.75;6.13;;;;;;;13.90;36.98;101730.19;4904579;28;99234;-73
2021/05/28 07:51:39;;;;;;;6.07;5.40;;;;;;;13.94;36.62;101732.06;4902496;28;98725;-72
2021/05/28 07:54:08;;;;;;;6.05;5.55;;;;;;;13.96;36.82;101732.09;4906653;28;97397;-74
2021/05/28 07:56:37;;;;;;;5.70;5.18;;;;;;;14.01;36.79;101736.69;4906149;28;97463;-73
2021/05/28 07:59:06;;;;;;;5.75;5.32;;;;;;;14.07;36.61;101739.50;4902642;28;98992;-73
2021/05/28 08:01:34;;;;;;;5.57;5.20;;;;;;;14.14;36.50;101729.81;4903979;28;97561;-73
2021/05/28 08:04:01;;;;;;;5.40;4.97;;;;;;;14.19;36.46;101735.28;4897764;28;97511;-73
2021/05/28 08:06:29;;;;;;;5.38;4.97;;;;;;;14.20;36.39;101735.31;4899512;28;96921;-73
2021/05/28 08:08:56;;;;;;;8.63;4.63;;;;;;;14.24;36.31;101728.25;4902550;28;97712;-73
2021/05/28 08:11:24;;;;;;;5.88;4.95;;;;;;;14.28;36.30;101728.34;4910516;28;99813;-73
2021/05/28 08:13:52;;;;;;;5.82;5.22;;;;;;;14.35;36.25;101735.66;4904256;28;97727;-73
2021/05/28 08:16:19;;;;;;;5.55;5.07;;;;;;;14.41;36.02;101734.88;4899527;28;97352;-73
2021/05/28 08:18:47;;;;;;;5.40;4.88;;;;;;;14.39;36.08;101744.66;4904966;28;97975;-72
2021/05/28 08:21:14;;;;;;;4.55;4.20;;;;;;;14.41;36.03;101737.56;4900256;28;99124;-73
2021/05/28 08:23:41;;;;;;;5.47;4.60;;;;;;;14.41;36.13;101733.09;4905223;28;97101;-73
2021/05/28 08:26:10;;;;;;;5.13;4.63;;;;;;;14.44;35.95;101741.19;4898288;28;98617;-73
2021/05/28 08:28:37;;;;;;;5.82;5.32;;;;;;;14.48;36.18;101739.50;4897077;28;99301;-73
2021/05/28 08:31:07;;;;;;;6.38;5.57;;;;;;;14.52;35.94;101741.31;4913821;28;100698;-72
2021/05/28 08:33:35;;;;;;;5.63;5.00;;;;;;;14.60;35.66;101737.06;4899468;28;97048;-73
2021/05/28 08:36:04;;;;;;;6.40;4.13;;;;;;;14.70;35.61;101733.72;4913785;28;97800;-73
2021/05/28 08:38:31;;;;;;;4.25;3.95;;;;;;;14.75;35.49;101740.06;4896239;28;98181;-73
2021/05/28 08:40:59;;;;;;;4.15;3.78;;;;;;;14.81;35.39;101738.38;4903307;28;99062;-73
2021/05/28 08:43:27;;;;;;;4.45;4.13;;;;;;;14.87;35.53;101737.59;4901246;28;97369;-73
2021/05/28 08:45:55;;;;;;;4.80;4.40;;;;;;;14.88;35.46;101742.09;4900986;28;97550;-73
2021/05/28 08:48:23;;;;;;;4.15;3.78;;;;;;;14.94;35.39;101747.56;4901625;28;101217;-73
2021/05/28 08:50:50;;;;;;;4.15;3.80;;;;;;;14.95;35.41;101744.03;4898876;28;98124;-73
2021/05/28 08:53:18;;;;;;;4.70;4.30;;;;;;;14.98;35.04;101747.66;4899692;28;98438;-74
2021/05/28 08:55:46;;;;;;;6.43;5.45;;;;;;;15.00;35.01;101739.63;4897560;28;97244;-73
2021/05/28 08:58:15;;;;;;;4.72;4.32;;;;;;;15.00;35.04;101731.59;4906463;28;97813;-72
2021/05/28 09:00:45;;;;;;;5.05;4.50;;;;;;;15.01;35.15;101746.78;4904286;28;98895;-72
2021/05/28 09:03:27;;;;;;;5.28;4.25;;;;;;;15.06;34.46;101735.28;4906027;28;98342;-73
2021/05/28 09:05:56;;;;;;;5.05;4.35;;;;;;;15.06;34.61;101735.28;4904552;28;97803;-72
2021/05/28 09:08:24;;;;;;;4.10;3.80;;;;;;;15.07;34.81;101730.81;4903614;28;97640;-72
2021/05/28 09:10:54;;;;;;;6.55;4.45;;;;;;;15.13;34.88;101731.84;4900366;28;98368;-72
2021/05/28 09:13:26;;;;;;;4.65;4.18;;;;;;;15.14;34.88;101736.31;4902596;28;97200;-72
2021/05/28 09:16:06;;;;;;;4.38;3.97;;;;;;;15.13;33.76;101737.22;4899785;28;97880;-72
2021/05/28 09:18:46;;;;;;;4.88;4.50;;;;;;;15.15;33.97;101742.59;4896977;28;98474;-73
2021/05/28 09:21:19;;;;;;;4.20;3.78;;;;;;;15.17;34.68;101736.38;4899928;28;99252;-73
2021/05/28 09:23:47;;;;;;;3.80;3.60;;;;;;;15.21;34.26;101729.28;4904617;28;97783;-73
2021/05/28 09:26:14;;;;;;;6.10;4.70;;;;;;;15.20;34.28;101730.16;4903766;28;97914;-73
2021/05/28 09:28:43;;;;;;;5.30;4.72;;;;;;;15.24;34.24;101725.75;4903712;28;97593;-73
2021/05/28 09:31:14;;;;;;;5.13;4.35;;;;;;;15.26;34.29;101722.25;4914311;28;100628;-73
2021/05/28 09:33:45;;;;;;;5.65;4.60;;;;;;;15.25;34.59;101725.78;4915108;28;97514;-74
2021/05/28 09:36:18;;;;;;;4.22;3.83;;;;;;;15.28;34.28;101722.25;4918219;28;97878;-73
2021/05/28 09:38:58;;;;;;;3.95;3.65;;;;;;;15.28;33.76;101727.63;4902913;28;101639;-73
2021/05/28 09:41:37;;;;;;;3.78;3.47;;;;;;;15.29;33.40;101730.34;4919215;28;99996;-73
2021/05/28 09:44:08;;;;;;;3.55;3.35;;;;;;;15.34;33.56;101736.69;4905193;28;98136;-74
2021/05/28 09:46:36;;;;;;;5.18;3.78;;;;;;;15.39;33.87;101732.34;4904973;28;97360;-74
2021/05/28 09:49:09;;;;;;;4.10;3.80;;;;;;;15.45;33.45;101732.41;4900366;28;98683;-73
2021/05/28 09:51:38;;;;;;;4.20;3.90;;;;;;;15.51;33.39;101729.84;4882929;28;98542;-73
2021/05/28 09:54:13;;;;;;;4.65;3.90;;;;;;;15.55;33.31;101737.06;4904579;28;97014;-73
2021/05/28 09:56:40;;;;;;;4.10;3.72;;;;;;;15.58;33.25;101730.81;4907144;28;97668;-73
2021/05/28 09:59:08;;;;;;;4.28;3.70;;;;;;;15.65;33.36;101738.13;4900232;28;99595;-73
2021/05/28 10:01:37;;;;;;;3.72;3.42;;;;;;;15.70;33.52;101739.97;4907268;28;97145;-73
2021/05/28 10:04:06;;;;;;;3.83;3.50;;;;;;;15.76;32.96;101734.69;4891097;28;98060;-73
2021/05/28 10:06:36;;;;;;;3.38;3.17;;;;;;;15.83;32.73;101731.22;4909131;28;98047;-73
2021/05/28 10:09:06;;;;;;;3.03;2.90;;;;;;;15.82;32.75;101725.84;4906714;28;97247;-73
2021/05/28 10:11:34;;;;;;;18.08;11.02;;;;;;;15.85;33.14;101731.22;4905151;28;99642;-74
2021/05/28 10:14:03;;;;;;;8.15;6.45;;;;;;;15.89;32.77;101728.63;4906709;28;97536;-73
2021/05/28 10:16:35;;;;;;;3.08;2.88;;;;;;;15.91;32.88;101726.88;4904228;28;97963;-74
2021/05/28 10:19:03;;;;;;;3.20;3.00;;;;;;;15.93;32.77;101740.31;4906871;28;98267;-73
2021/05/28 10:21:31;;;;;;;3.58;3.28;;;;;;;15.93;32.80;101740.31;4913293;28;100105;-74
2021/05/28 10:23:59;;;;;;;3.25;2.97;;;;;;;15.94;32.59;101734.09;4902314;28;97224;-73
2021/05/28 10:26:29;;;;;;;2.80;2.70;;;;;;;15.96;32.51;101732.28;4904413;28;97587;-73
2021/05/28 10:28:57;;;;;;;3.17;2.92;;;;;;;15.95;32.59;101731.41;4903940;28;97832;-73
2021/05/28 10:31:53;;;;;;;3.30;3.10;;;;;;;15.92;31.58;101736.72;4907724;28;97989;-73
2021/05/28 10:34:22;;;;;;;3.25;2.90;;;;;;;15.89;32.53;101728.63;4910851;28;97314;-72
2021/05/28 10:36:49;;;;;;;3.60;3.13;;;;;;;15.89;32.74;101723.25;4906564;28;97507;-73
2021/05/28 10:39:19;;;;;;;3.45;3.25;;;;;;;15.96;32.25;101722.47;4911231;28;97960;-72
2021/05/28 10:41:48;;;;;;;23.38;15.27;;;;;;;16.03;32.36;101720.81;4907592;28;98712;-73
2021/05/28 10:44:21;;;;;;;9.40;8.02;;;;;;;16.08;32.35;101714.63;4908648;28;96951;-72
2021/05/28 10:47:19;;;;;;;5.07;3.90;;;;;;;16.16;31.08;101720.06;4903655;28;96811;-73
2021/05/28 10:49:48;;;;;;;3.13;2.88;;;;;;;16.19;32.19;101721.91;4888596;28;99287;-72
2021/05/28 10:52:27;;;;;;;2.85;2.72;;;;;;;16.23;31.25;101719.31;4904832;28;98458;-73
2021/05/28 10:54:58;;;;;;;3.20;2.97;;;;;;;16.16;31.78;101720.06;4898167;28;98083;-73
2021/05/28 10:57:49;;;;;;;3.58;3.30;;;;;;;16.23;31.13;101719.31;4909045;28;98843;-72
2021/05/28 11:00:23;;;;;;;44.25;24.35;;;;;;;16.27;31.43;101709.50;4894786;28;97828;-73
2021/05/28 11:02:55;;;;;;;7.95;5.22;;;;;;;16.29;32.18;101707.72;4905649;28;98613;-73
2021/05/28 11:05:40;;;;;;;3.42;3.10;;;;;;;16.34;31.28;101714.06;4905787;28;97273;-73
2021/05/28 11:08:41;;;;;;;3.30;3.00;;;;;;;16.41;31.05;101707.88;4901553;28;96871;-73
2021/05/28 11:11:54;;;;;;;4.38;3.13;;;;;;;16.42;30.94;101705.19;4852522;28;100306;-73
2021/05/28 11:14:21;;;;;;;3.78;3.10;;;;;;;16.40;31.55;101716.78;4903643;28;97576;-73
2021/05/28 11:17:14;;;;;;;3.75;3.50;;;;;;;16.37;30.95;101711.38;4921531;28;97406;-73
2021/05/28 11:19:44;;;;;;;3.80;3.50;;;;;;;16.31;31.63;101711.31;4899951;28;97141;-73
2021/05/28 11:22:14;;;;;;;6.32;3.70;;;;;;;16.35;31.89;101715.84;4905021;28;99870;-73
2021/05/28 11:24:44;;;;;;;4.32;3.95;;;;;;;16.41;31.82;101705.19;4903430;28;97578;-73
2021/05/28 11:27:13;;;;;;;3.47;3.15;;;;;;;16.44;31.64;101698.06;4904919;28;97453;-73
2021/05/28 11:29:40;;;;;;;3.20;3.00;;;;;;;16.53;31.60;101699.94;4901678;28;97053;-73
2021/05/28 11:32:30;;;;;;;3.08;2.88;;;;;;;16.63;30.54;101696.47;4900430;28;98392;-73
2021/05/28 11:35:17;;;;;;;2.92;2.60;;;;;;;16.67;30.25;101693.81;4899788;28;98083;-74